sensor_id;sensor_type;location;lat;lon;timestamp;P1;durP1;ratioP1;P2;durP2;ratioP2
52126;SDS011;38120;53.176;6.614;2023-05-23T00:01:35;41.25;;;17.77;;
52126;SDS011;38120;53.176;6.614;2023-05-23T00:04:04;34.17;;;16.58;;
52126;SDS011;38120;53.176;6.614;2023-05-23T00:06:31;33.13;;;18.08;;
52126;SDS011;38120;53.176;6.614;2023-05-23T00:08:58;35.08;;;17.20;;
52126;SDS011;38120;53.176;6.614;2023-05-23T00:11:24;29.23;;;12.40;;
52126;SDS011;38120;53.176;6.614;2023-05-23T00:13:54;26.13;;;14.13;;
52126;SDS011;38120;53.176;6.614;2023-05-23T00:16:25;26.08;;;15.07;;
52126;SDS011;38120;53.176;6.614;2023-05-23T00:18:51;31.27;;;14.02;;
52126;SDS011;38120;53.176;6.614;2023-05-23T00:23:44;24.47;;;14.53;;
52126;SDS011;38120;53.176;6.614;2023-05-23T00:26:09;28.88;;;14.57;;
52126;SDS011;38120;53.176;6.614;2023-05-23T00:28:38;28.33;;;15.15;;
52126;SDS011;38120;53.176;6.614;2023-05-23T00:31:04;29.88;;;14.32;;
52126;SDS011;38120;53.176;6.614;2023-05-23T00:33:30;30.33;;;15.02;;
52126;SDS011;38120;53.176;6.614;2023-05-23T00:35:57;23.98;;;13.85;;
52126;SDS011;38120;53.176;6.614;2023-05-23T00:38:24;24.42;;;11.55;;
52126;SDS011;38120;53.176;6.614;2023-05-23T00:40:50;25.42;;;13.27;;
52126;SDS011;38120;53.176;6.614;2023-05-23T00:43:16;24.83;;;11.85;;
52126;SDS011;38120;53.176;6.614;2023-05-23T00:45:43;21.73;;;12.57;;
52126;SDS011;38120;53.176;6.614;2023-05-23T00:48:09;21.08;;;13.63;;
52126;SDS011;38120;53.176;6.614;2023-05-23T00:50:36;22.25;;;14.85;;
52126;SDS011;38120;53.176;6.614;2023-05-23T00:53:01;27.38;;;16.73;;
52126;SDS011;38120;53.176;6.614;2023-05-23T00:55:28;28.90;;;16.42;;
52126;SDS011;38120;53.176;6.614;2023-05-23T01:00:24;22.73;;;12.65;;
52126;SDS011;38120;53.176;6.614;2023-05-23T01:02:51;31.70;;;16.13;;
52126;SDS011;38120;53.176;6.614;2023-05-23T01:05:17;22.50;;;13.43;;
52126;SDS011;38120;53.176;6.614;2023-05-23T01:07:47;25.13;;;14.25;;
52126;SDS011;38120;53.176;6.614;2023-05-23T01:10:14;22.67;;;12.80;;
52126;SDS011;38120;53.176;6.614;2023-05-23T01:15:39;21.00;;;10.25;;
52126;SDS011;38120;53.176;6.614;2023-05-23T01:18:23;21.75;;;10.60;;
52126;SDS011;38120;53.176;6.614;2023-05-23T01:28:58;10.52;;;7.88;;
52126;SDS011;38120;53.176;6.614;2023-05-23T01:31:35;13.65;;;8.65;;
52126;SDS011;38120;53.176;6.614;2023-05-23T01:34:03;14.68;;;8.15;;
52126;SDS011;38120;53.176;6.614;2023-05-23T01:36:32;17.55;;;9.63;;
52126;SDS011;38120;53.176;6.614;2023-05-23T01:38:59;16.60;;;8.73;;
52126;SDS011;38120;53.176;6.614;2023-05-23T01:41:25;21.58;;;8.32;;
52126;SDS011;38120;53.176;6.614;2023-05-23T01:43:52;22.13;;;9.80;;
52126;SDS011;38120;53.176;6.614;2023-05-23T01:48:45;18.30;;;7.83;;
52126;SDS011;38120;53.176;6.614;2023-05-23T01:51:12;13.32;;;7.03;;
52126;SDS011;38120;53.176;6.614;2023-05-23T01:56:04;24.77;;;9.55;;
52126;SDS011;38120;53.176;6.614;2023-05-23T01:58:30;19.58;;;8.70;;
52126;SDS011;38120;53.176;6.614;2023-05-23T02:00:56;19.98;;;8.85;;
52126;SDS011;38120;53.176;6.614;2023-05-23T02:03:22;27.70;;;9.25;;
52126;SDS011;38120;53.176;6.614;2023-05-23T02:05:48;18.80;;;8.97;;
52126;SDS011;38120;53.176;6.614;2023-05-23T02:08:13;18.58;;;9.73;;
52126;SDS011;38120;53.176;6.614;2023-05-23T02:10:39;19.57;;;8.70;;
52126;SDS011;38120;53.176;6.614;2023-05-23T02:13:05;20.15;;;9.00;;
52126;SDS011;38120;53.176;6.614;2023-05-23T02:15:30;22.17;;;10.43;;
52126;SDS011;38120;53.176;6.614;2023-05-23T02:17:56;21.73;;;10.00;;
52126;SDS011;38120;53.176;6.614;2023-05-23T02:20:22;19.40;;;10.30;;
52126;SDS011;38120;53.176;6.614;2023-05-23T02:22:48;28.40;;;10.50;;
52126;SDS011;38120;53.176;6.614;2023-05-23T02:25:13;17.42;;;7.95;;
52126;SDS011;38120;53.176;6.614;2023-05-23T02:27:39;26.92;;;9.90;;
52126;SDS011;38120;53.176;6.614;2023-05-23T02:30:05;28.57;;;8.70;;
52126;SDS011;38120;53.176;6.614;2023-05-23T02:34:57;21.48;;;8.75;;
52126;SDS011;38120;53.176;6.614;2023-05-23T02:37:23;24.25;;;7.90;;
52126;SDS011;38120;53.176;6.614;2023-05-23T02:39:49;18.35;;;6.78;;
52126;SDS011;38120;53.176;6.614;2023-05-23T02:42:15;13.37;;;6.17;;
52126;SDS011;38120;53.176;6.614;2023-05-23T02:44:40;10.83;;;5.43;;
52126;SDS011;38120;53.176;6.614;2023-05-23T02:47:06;14.67;;;8.63;;
52126;SDS011;38120;53.176;6.614;2023-05-23T02:49:31;22.83;;;7.53;;
52126;SDS011;38120;53.176;6.614;2023-05-23T02:51:57;13.57;;;6.10;;
52126;SDS011;38120;53.176;6.614;2023-05-23T02:54:23;21.77;;;8.30;;
52126;SDS011;38120;53.176;6.614;2023-05-23T02:56:48;26.23;;;7.97;;
52126;SDS011;38120;53.176;6.614;2023-05-23T02:59:16;21.50;;;7.20;;
52126;SDS011;38120;53.176;6.614;2023-05-23T03:01:42;14.07;;;7.15;;
52126;SDS011;38120;53.176;6.614;2023-05-23T03:04:07;14.03;;;5.83;;
52126;SDS011;38120;53.176;6.614;2023-05-23T03:06:33;18.42;;;7.32;;
52126;SDS011;38120;53.176;6.614;2023-05-23T03:09:00;15.38;;;8.50;;
52126;SDS011;38120;53.176;6.614;2023-05-23T03:11:26;22.60;;;8.32;;
52126;SDS011;38120;53.176;6.614;2023-05-23T03:13:54;11.63;;;5.78;;
52126;SDS011;38120;53.176;6.614;2023-05-23T03:16:21;22.10;;;7.65;;
52126;SDS011;38120;53.176;6.614;2023-05-23T03:18:47;22.08;;;8.38;;
52126;SDS011;38120;53.176;6.614;2023-05-23T03:21:13;22.63;;;8.73;;
52126;SDS011;38120;53.176;6.614;2023-05-23T03:23:39;19.98;;;9.13;;
52126;SDS011;38120;53.176;6.614;2023-05-23T03:26:04;18.73;;;9.18;;
52126;SDS011;38120;53.176;6.614;2023-05-23T03:28:30;19.08;;;7.63;;
52126;SDS011;38120;53.176;6.614;2023-05-23T03:30:56;17.40;;;7.10;;
52126;SDS011;38120;53.176;6.614;2023-05-23T03:33:22;23.33;;;8.43;;
52126;SDS011;38120;53.176;6.614;2023-05-23T03:35:48;17.58;;;7.22;;
52126;SDS011;38120;53.176;6.614;2023-05-23T03:38:19;19.60;;;7.68;;
52126;SDS011;38120;53.176;6.614;2023-05-23T03:40:45;19.10;;;6.90;;
52126;SDS011;38120;53.176;6.614;2023-05-23T03:43:11;16.63;;;7.57;;
52126;SDS011;38120;53.176;6.614;2023-05-23T03:45:36;18.88;;;6.40;;
52126;SDS011;38120;53.176;6.614;2023-05-23T03:48:02;18.93;;;7.27;;
52126;SDS011;38120;53.176;6.614;2023-05-23T03:50:28;11.05;;;4.93;;
52126;SDS011;38120;53.176;6.614;2023-05-23T03:52:54;18.80;;;7.07;;
52126;SDS011;38120;53.176;6.614;2023-05-23T03:55:20;11.45;;;5.63;;
52126;SDS011;38120;53.176;6.614;2023-05-23T03:57:50;20.92;;;6.15;;
52126;SDS011;38120;53.176;6.614;2023-05-23T04:00:16;18.92;;;7.85;;
52126;SDS011;38120;53.176;6.614;2023-05-23T04:05:08;23.42;;;7.13;;
52126;SDS011;38120;53.176;6.614;2023-05-23T04:07:34;13.80;;;6.00;;
52126;SDS011;38120;53.176;6.614;2023-05-23T04:10:00;18.17;;;5.95;;
52126;SDS011;38120;53.176;6.614;2023-05-23T04:12:27;15.20;;;5.63;;
52126;SDS011;38120;53.176;6.614;2023-05-23T04:14:54;20.40;;;6.13;;
52126;SDS011;38120;53.176;6.614;2023-05-23T04:17:20;16.70;;;6.70;;
52126;SDS011;38120;53.176;6.614;2023-05-23T04:19:46;14.07;;;5.50;;
52126;SDS011;38120;53.176;6.614;2023-05-23T04:22:12;13.40;;;4.72;;
52126;SDS011;38120;53.176;6.614;2023-05-23T04:24:38;17.15;;;6.05;;
52126;SDS011;38120;53.176;6.614;2023-05-23T04:27:03;16.27;;;6.93;;
52126;SDS011;38120;53.176;6.614;2023-05-23T04:29:29;14.15;;;3.88;;
52126;SDS011;38120;53.176;6.614;2023-05-23T04:31:58;12.27;;;4.97;;
52126;SDS011;38120;53.176;6.614;2023-05-23T04:34:24;17.77;;;5.03;;
52126;SDS011;38120;53.176;6.614;2023-05-23T04:36:51;15.63;;;4.30;;
52126;SDS011;38120;53.176;6.614;2023-05-23T04:39:18;15.73;;;4.80;;
52126;SDS011;38120;53.176;6.614;2023-05-23T04:41:44;14.40;;;5.35;;
52126;SDS011;38120;53.176;6.614;2023-05-23T04:44:10;13.68;;;4.20;;
52126;SDS011;38120;53.176;6.614;2023-05-23T04:46:36;13.05;;;4.13;;
52126;SDS011;38120;53.176;6.614;2023-05-23T04:49:06;21.48;;;5.45;;
52126;SDS011;38120;53.176;6.614;2023-05-23T04:51:32;17.20;;;4.82;;
52126;SDS011;38120;53.176;6.614;2023-05-23T04:53:59;14.90;;;5.18;;
52126;SDS011;38120;53.176;6.614;2023-05-23T04:56:25;9.90;;;4.53;;
52126;SDS011;38120;53.176;6.614;2023-05-23T04:58:53;18.00;;;5.32;;
52126;SDS011;38120;53.176;6.614;2023-05-23T05:03:48;10.30;;;4.60;;
52126;SDS011;38120;53.176;6.614;2023-05-23T05:08:41;23.42;;;7.63;;
52126;SDS011;38120;53.176;6.614;2023-05-23T05:11:07;16.05;;;7.97;;
52126;SDS011;38120;53.176;6.614;2023-05-23T05:13:33;20.73;;;7.22;;
52126;SDS011;38120;53.176;6.614;2023-05-23T05:15:59;21.42;;;7.85;;
52126;SDS011;38120;53.176;6.614;2023-05-23T05:18:26;15.48;;;6.90;;
52126;SDS011;38120;53.176;6.614;2023-05-23T05:20:52;16.45;;;6.35;;
52126;SDS011;38120;53.176;6.614;2023-05-23T05:23:18;17.92;;;6.75;;
52126;SDS011;38120;53.176;6.614;2023-05-23T05:25:45;18.08;;;7.05;;
52126;SDS011;38120;53.176;6.614;2023-05-23T05:28:11;21.88;;;6.55;;
52126;SDS011;38120;53.176;6.614;2023-05-23T05:30:40;13.70;;;5.75;;
52126;SDS011;38120;53.176;6.614;2023-05-23T05:33:06;20.48;;;7.63;;
52126;SDS011;38120;53.176;6.614;2023-05-23T05:37:59;22.40;;;5.97;;
52126;SDS011;38120;53.176;6.614;2023-05-23T05:40:31;10.23;;;4.93;;
52126;SDS011;38120;53.176;6.614;2023-05-23T05:42:57;14.77;;;7.07;;
52126;SDS011;38120;53.176;6.614;2023-05-23T05:45:23;8.75;;;4.60;;
52126;SDS011;38120;53.176;6.614;2023-05-23T05:47:49;14.07;;;5.18;;
52126;SDS011;38120;53.176;6.614;2023-05-23T05:50:15;13.90;;;5.85;;
52126;SDS011;38120;53.176;6.614;2023-05-23T05:52:41;17.73;;;5.45;;
52126;SDS011;38120;53.176;6.614;2023-05-23T05:55:08;15.18;;;5.45;;
52126;SDS011;38120;53.176;6.614;2023-05-23T05:57:35;13.25;;;4.75;;
52126;SDS011;38120;53.176;6.614;2023-05-23T06:00:08;8.20;;;3.75;;
52126;SDS011;38120;53.176;6.614;2023-05-23T06:02:38;9.48;;;4.28;;
52126;SDS011;38120;53.176;6.614;2023-05-23T06:05:05;9.38;;;4.00;;
52126;SDS011;38120;53.176;6.614;2023-05-23T06:07:35;11.80;;;3.55;;
52126;SDS011;38120;53.176;6.614;2023-05-23T06:10:00;8.20;;;3.90;;
52126;SDS011;38120;53.176;6.614;2023-05-23T06:12:26;10.40;;;4.03;;
52126;SDS011;38120;53.176;6.614;2023-05-23T06:14:52;17.63;;;4.63;;
52126;SDS011;38120;53.176;6.614;2023-05-23T06:17:18;14.10;;;4.17;;
52126;SDS011;38120;53.176;6.614;2023-05-23T06:19:44;15.32;;;4.78;;
52126;SDS011;38120;53.176;6.614;2023-05-23T06:22:09;11.63;;;4.28;;
52126;SDS011;38120;53.176;6.614;2023-05-23T06:24:35;13.75;;;4.60;;
52126;SDS011;38120;53.176;6.614;2023-05-23T06:27:01;14.17;;;4.60;;
52126;SDS011;38120;53.176;6.614;2023-05-23T06:29:26;7.67;;;2.87;;
52126;SDS011;38120;53.176;6.614;2023-05-23T06:31:52;11.40;;;5.27;;
52126;SDS011;38120;53.176;6.614;2023-05-23T06:34:18;14.53;;;4.20;;
52126;SDS011;38120;53.176;6.614;2023-05-23T06:39:11;15.25;;;5.30;;
52126;SDS011;38120;53.176;6.614;2023-05-23T06:41:37;14.60;;;4.37;;
52126;SDS011;38120;53.176;6.614;2023-05-23T06:46:29;14.65;;;4.43;;
52126;SDS011;38120;53.176;6.614;2023-05-23T06:48:55;12.82;;;4.57;;
52126;SDS011;38120;53.176;6.614;2023-05-23T06:51:21;17.00;;;4.50;;
52126;SDS011;38120;53.176;6.614;2023-05-23T06:53:46;10.13;;;3.70;;
52126;SDS011;38120;53.176;6.614;2023-05-23T06:56:12;11.77;;;3.87;;
52126;SDS011;38120;53.176;6.614;2023-05-23T06:58:38;14.10;;;4.47;;
52126;SDS011;38120;53.176;6.614;2023-05-23T07:01:04;14.63;;;4.10;;
52126;SDS011;38120;53.176;6.614;2023-05-23T07:03:30;10.75;;;3.80;;
52126;SDS011;38120;53.176;6.614;2023-05-23T07:05:55;17.27;;;5.10;;
52126;SDS011;38120;53.176;6.614;2023-05-23T07:08:21;15.95;;;3.75;;
52126;SDS011;38120;53.176;6.614;2023-05-23T07:10:47;14.40;;;4.33;;
52126;SDS011;38120;53.176;6.614;2023-05-23T07:13:12;17.50;;;4.03;;
52126;SDS011;38120;53.176;6.614;2023-05-23T07:15:38;17.87;;;4.30;;
52126;SDS011;38120;53.176;6.614;2023-05-23T07:18:04;17.43;;;4.77;;
52126;SDS011;38120;53.176;6.614;2023-05-23T07:20:31;16.23;;;5.47;;
52126;SDS011;38120;53.176;6.614;2023-05-23T07:22:58;15.40;;;4.38;;
52126;SDS011;38120;53.176;6.614;2023-05-23T07:25:24;19.20;;;4.30;;
52126;SDS011;38120;53.176;6.614;2023-05-23T07:27:51;9.85;;;3.75;;
52126;SDS011;38120;53.176;6.614;2023-05-23T07:30:19;18.45;;;4.90;;
52126;SDS011;38120;53.176;6.614;2023-05-23T07:32:46;16.65;;;4.50;;
52126;SDS011;38120;53.176;6.614;2023-05-23T07:35:13;10.48;;;3.33;;
52126;SDS011;38120;53.176;6.614;2023-05-23T07:37:39;12.38;;;3.80;;
52126;SDS011;38120;53.176;6.614;2023-05-23T07:40:05;14.98;;;4.43;;
52126;SDS011;38120;53.176;6.614;2023-05-23T07:42:33;13.57;;;4.43;;
52126;SDS011;38120;53.176;6.614;2023-05-23T07:44:59;12.82;;;3.85;;
52126;SDS011;38120;53.176;6.614;2023-05-23T07:47:25;11.13;;;3.70;;
52126;SDS011;38120;53.176;6.614;2023-05-23T07:49:51;15.50;;;4.32;;
52126;SDS011;38120;53.176;6.614;2023-05-23T07:52:18;17.63;;;4.95;;
52126;SDS011;38120;53.176;6.614;2023-05-23T07:54:44;12.73;;;4.05;;
52126;SDS011;38120;53.176;6.614;2023-05-23T07:57:09;20.87;;;4.67;;
52126;SDS011;38120;53.176;6.614;2023-05-23T07:59:35;18.73;;;4.50;;
52126;SDS011;38120;53.176;6.614;2023-05-23T08:02:01;17.40;;;4.67;;
52126;SDS011;38120;53.176;6.614;2023-05-23T08:04:27;24.05;;;3.85;;
52126;SDS011;38120;53.176;6.614;2023-05-23T08:06:53;13.45;;;4.28;;
52126;SDS011;38120;53.176;6.614;2023-05-23T08:11:46;13.38;;;3.08;;
52126;SDS011;38120;53.176;6.614;2023-05-23T08:14:12;16.08;;;3.30;;
52126;SDS011;38120;53.176;6.614;2023-05-23T08:16:37;9.00;;;2.87;;
52126;SDS011;38120;53.176;6.614;2023-05-23T08:19:03;10.63;;;3.80;;
52126;SDS011;38120;53.176;6.614;2023-05-23T08:21:29;18.70;;;3.83;;
52126;SDS011;38120;53.176;6.614;2023-05-23T08:23:56;16.90;;;4.15;;
52126;SDS011;38120;53.176;6.614;2023-05-23T08:26:22;18.15;;;4.70;;
52126;SDS011;38120;53.176;6.614;2023-05-23T08:28:47;15.40;;;3.72;;
52126;SDS011;38120;53.176;6.614;2023-05-23T08:31:13;20.00;;;4.57;;
52126;SDS011;38120;53.176;6.614;2023-05-23T08:33:41;12.93;;;3.30;;
52126;SDS011;38120;53.176;6.614;2023-05-23T08:36:08;16.75;;;4.18;;
52126;SDS011;38120;53.176;6.614;2023-05-23T08:38:34;13.23;;;4.20;;
52126;SDS011;38120;53.176;6.614;2023-05-23T08:41:03;25.30;;;4.10;;
52126;SDS011;38120;53.176;6.614;2023-05-23T08:43:36;16.65;;;3.72;;
52126;SDS011;38120;53.176;6.614;2023-05-23T08:46:02;11.83;;;3.13;;
52126;SDS011;38120;53.176;6.614;2023-05-23T08:48:29;10.85;;;4.40;;
52126;SDS011;38120;53.176;6.614;2023-05-23T08:50:55;13.38;;;3.80;;
52126;SDS011;38120;53.176;6.614;2023-05-23T08:53:22;11.85;;;4.22;;
52126;SDS011;38120;53.176;6.614;2023-05-23T08:55:51;12.00;;;3.55;;
52126;SDS011;38120;53.176;6.614;2023-05-23T08:58:19;9.90;;;3.75;;
52126;SDS011;38120;53.176;6.614;2023-05-23T09:00:46;15.77;;;3.88;;
52126;SDS011;38120;53.176;6.614;2023-05-23T09:03:16;11.23;;;4.38;;
52126;SDS011;38120;53.176;6.614;2023-05-23T09:05:43;11.70;;;3.90;;
52126;SDS011;38120;53.176;6.614;2023-05-23T09:08:09;17.15;;;3.53;;
52126;SDS011;38120;53.176;6.614;2023-05-23T09:10:35;19.53;;;4.43;;
52126;SDS011;38120;53.176;6.614;2023-05-23T09:13:04;11.38;;;3.67;;
52126;SDS011;38120;53.176;6.614;2023-05-23T09:15:29;14.35;;;3.35;;
52126;SDS011;38120;53.176;6.614;2023-05-23T09:17:59;11.82;;;3.90;;
52126;SDS011;38120;53.176;6.614;2023-05-23T09:20:28;15.98;;;5.00;;
52126;SDS011;38120;53.176;6.614;2023-05-23T09:22:54;12.35;;;3.78;;
52126;SDS011;38120;53.176;6.614;2023-05-23T09:25:20;14.73;;;5.25;;
52126;SDS011;38120;53.176;6.614;2023-05-23T09:27:46;11.07;;;3.13;;
52126;SDS011;38120;53.176;6.614;2023-05-23T09:30:12;14.32;;;4.03;;
52126;SDS011;38120;53.176;6.614;2023-05-23T09:32:38;13.88;;;4.38;;
52126;SDS011;38120;53.176;6.614;2023-05-23T09:35:05;20.38;;;3.90;;
52126;SDS011;38120;53.176;6.614;2023-05-23T09:37:36;19.30;;;3.95;;
52126;SDS011;38120;53.176;6.614;2023-05-23T09:42:34;8.52;;;2.58;;
52126;SDS011;38120;53.176;6.614;2023-05-23T09:45:00;9.13;;;3.92;;
52126;SDS011;38120;53.176;6.614;2023-05-23T09:47:27;15.73;;;3.75;;
52126;SDS011;38120;53.176;6.614;2023-05-23T09:49:52;15.02;;;4.93;;
52126;SDS011;38120;53.176;6.614;2023-05-23T09:52:19;15.98;;;4.22;;
52126;SDS011;38120;53.176;6.614;2023-05-23T09:54:45;14.20;;;4.30;;
52126;SDS011;38120;53.176;6.614;2023-05-23T09:57:12;13.88;;;3.45;;
52126;SDS011;38120;53.176;6.614;2023-05-23T09:59:39;11.90;;;3.83;;
52126;SDS011;38120;53.176;6.614;2023-05-23T10:02:15;9.80;;;4.15;;
52126;SDS011;38120;53.176;6.614;2023-05-23T10:04:47;8.23;;;2.88;;
52126;SDS011;38120;53.176;6.614;2023-05-23T10:07:19;10.98;;;3.70;;
52126;SDS011;38120;53.176;6.614;2023-05-23T10:09:53;14.52;;;3.05;;
52126;SDS011;38120;53.176;6.614;2023-05-23T10:15:14;11.98;;;3.00;;
52126;SDS011;38120;53.176;6.614;2023-05-23T10:20:30;11.05;;;3.28;;
52126;SDS011;38120;53.176;6.614;2023-05-23T10:23:00;7.00;;;2.88;;
52126;SDS011;38120;53.176;6.614;2023-05-23T10:25:27;16.52;;;3.03;;
52126;SDS011;38120;53.176;6.614;2023-05-23T10:27:54;15.38;;;3.63;;
52126;SDS011;38120;53.176;6.614;2023-05-23T10:30:27;12.25;;;2.97;;
52126;SDS011;38120;53.176;6.614;2023-05-23T10:32:53;13.40;;;3.47;;
52126;SDS011;38120;53.176;6.614;2023-05-23T10:35:37;13.20;;;3.60;;
52126;SDS011;38120;53.176;6.614;2023-05-23T10:41:21;14.90;;;3.60;;
52126;SDS011;38120;53.176;6.614;2023-05-23T10:46:52;16.35;;;4.03;;
52126;SDS011;38120;53.176;6.614;2023-05-23T10:49:19;12.70;;;3.55;;
52126;SDS011;38120;53.176;6.614;2023-05-23T10:51:49;8.60;;;2.72;;
52126;SDS011;38120;53.176;6.614;2023-05-23T10:54:18;9.73;;;2.92;;
52126;SDS011;38120;53.176;6.614;2023-05-23T10:56:44;13.23;;;2.83;;
52126;SDS011;38120;53.176;6.614;2023-05-23T10:59:18;10.35;;;2.97;;
52126;SDS011;38120;53.176;6.614;2023-05-23T11:01:49;9.57;;;2.85;;
52126;SDS011;38120;53.176;6.614;2023-05-23T11:04:23;13.45;;;3.88;;
52126;SDS011;38120;53.176;6.614;2023-05-23T11:06:53;11.43;;;3.55;;
52126;SDS011;38120;53.176;6.614;2023-05-23T11:09:20;18.05;;;3.70;;
52126;SDS011;38120;53.176;6.614;2023-05-23T11:17:16;14.85;;;3.90;;
52126;SDS011;38120;53.176;6.614;2023-05-23T11:20:03;11.00;;;3.28;;
52126;SDS011;38120;53.176;6.614;2023-05-23T11:24:58;9.70;;;3.03;;
52126;SDS011;38120;53.176;6.614;2023-05-23T11:27:29;19.98;;;3.85;;
52126;SDS011;38120;53.176;6.614;2023-05-23T11:32:39;10.90;;;2.92;;
52126;SDS011;38120;53.176;6.614;2023-05-23T11:35:06;13.85;;;3.70;;
52126;SDS011;38120;53.176;6.614;2023-05-23T11:37:34;16.10;;;4.10;;
52126;SDS011;38120;53.176;6.614;2023-05-23T11:45:18;14.07;;;3.50;;
52126;SDS011;38120;53.176;6.614;2023-05-23T11:47:44;10.82;;;3.10;;
52126;SDS011;38120;53.176;6.614;2023-05-23T11:50:10;9.50;;;3.17;;
52126;SDS011;38120;53.176;6.614;2023-05-23T11:52:35;17.50;;;4.00;;
52126;SDS011;38120;53.176;6.614;2023-05-23T11:55:01;7.78;;;2.72;;
52126;SDS011;38120;53.176;6.614;2023-05-23T11:57:27;11.68;;;2.80;;
52126;SDS011;38120;53.176;6.614;2023-05-23T11:59:54;10.65;;;2.95;;
52126;SDS011;38120;53.176;6.614;2023-05-23T12:02:20;8.82;;;2.60;;
52126;SDS011;38120;53.176;6.614;2023-05-23T12:04:49;7.93;;;2.53;;
52126;SDS011;38120;53.176;6.614;2023-05-23T12:07:19;7.28;;;2.25;;
52126;SDS011;38120;53.176;6.614;2023-05-23T12:09:45;17.45;;;3.40;;
52126;SDS011;38120;53.176;6.614;2023-05-23T12:12:11;11.20;;;3.65;;
52126;SDS011;38120;53.176;6.614;2023-05-23T12:17:11;8.52;;;2.78;;
52126;SDS011;38120;53.176;6.614;2023-05-23T12:19:38;14.63;;;3.53;;
52126;SDS011;38120;53.176;6.614;2023-05-23T12:22:04;13.05;;;2.47;;
52126;SDS011;38120;53.176;6.614;2023-05-23T12:24:31;14.85;;;2.85;;
52126;SDS011;38120;53.176;6.614;2023-05-23T12:26:58;10.90;;;2.22;;
52126;SDS011;38120;53.176;6.614;2023-05-23T12:29:29;10.77;;;2.20;;
52126;SDS011;38120;53.176;6.614;2023-05-23T12:32:03;7.43;;;2.15;;
52126;SDS011;38120;53.176;6.614;2023-05-23T12:34:30;12.25;;;2.85;;
52126;SDS011;38120;53.176;6.614;2023-05-23T12:36:57;12.82;;;4.25;;
52126;SDS011;38120;53.176;6.614;2023-05-23T12:39:25;14.38;;;3.25;;
52126;SDS011;38120;53.176;6.614;2023-05-23T12:41:52;18.30;;;3.63;;
52126;SDS011;38120;53.176;6.614;2023-05-23T12:44:32;10.65;;;4.10;;
52126;SDS011;38120;53.176;6.614;2023-05-23T12:46:58;14.48;;;3.00;;
52126;SDS011;38120;53.176;6.614;2023-05-23T12:49:24;10.23;;;3.25;;
52126;SDS011;38120;53.176;6.614;2023-05-23T12:51:50;10.80;;;2.90;;
52126;SDS011;38120;53.176;6.614;2023-05-23T12:54:16;5.55;;;1.58;;
52126;SDS011;38120;53.176;6.614;2023-05-23T12:59:08;9.25;;;2.92;;
52126;SDS011;38120;53.176;6.614;2023-05-23T13:01:33;10.48;;;2.83;;
52126;SDS011;38120;53.176;6.614;2023-05-23T13:04:00;15.27;;;3.97;;
52126;SDS011;38120;53.176;6.614;2023-05-23T13:06:26;10.57;;;2.63;;
52126;SDS011;38120;53.176;6.614;2023-05-23T13:11:22;10.02;;;2.60;;
52126;SDS011;38120;53.176;6.614;2023-05-23T13:13:48;8.85;;;2.95;;
52126;SDS011;38120;53.176;6.614;2023-05-23T13:16:15;13.52;;;3.22;;
52126;SDS011;38120;53.176;6.614;2023-05-23T13:18:41;15.32;;;2.90;;
52126;SDS011;38120;53.176;6.614;2023-05-23T13:21:07;11.10;;;2.70;;
52126;SDS011;38120;53.176;6.614;2023-05-23T13:23:33;10.15;;;1.95;;
52126;SDS011;38120;53.176;6.614;2023-05-23T13:26:00;15.80;;;2.55;;
52126;SDS011;38120;53.176;6.614;2023-05-23T13:28:27;6.80;;;2.50;;
52126;SDS011;38120;53.176;6.614;2023-05-23T13:33:19;12.43;;;2.78;;
52126;SDS011;38120;53.176;6.614;2023-05-23T13:35:47;11.77;;;3.40;;
52126;SDS011;38120;53.176;6.614;2023-05-23T13:38:16;14.75;;;3.63;;
52126;SDS011;38120;53.176;6.614;2023-05-23T13:40:42;11.38;;;2.78;;
52126;SDS011;38120;53.176;6.614;2023-05-23T13:43:08;7.90;;;3.00;;
52126;SDS011;38120;53.176;6.614;2023-05-23T13:45:34;9.75;;;2.92;;
52126;SDS011;38120;53.176;6.614;2023-05-23T13:48:00;9.18;;;3.08;;
52126;SDS011;38120;53.176;6.614;2023-05-23T13:50:25;12.40;;;2.63;;
52126;SDS011;38120;53.176;6.614;2023-05-23T13:52:52;10.02;;;3.08;;
52126;SDS011;38120;53.176;6.614;2023-05-23T13:55:17;11.95;;;3.65;;
52126;SDS011;38120;53.176;6.614;2023-05-23T13:57:43;11.50;;;3.00;;
52126;SDS011;38120;53.176;6.614;2023-05-23T14:00:10;10.23;;;2.50;;
52126;SDS011;38120;53.176;6.614;2023-05-23T14:05:02;10.10;;;2.75;;
52126;SDS011;38120;53.176;6.614;2023-05-23T14:07:29;8.50;;;2.38;;
52126;SDS011;38120;53.176;6.614;2023-05-23T14:09:55;7.85;;;2.10;;
52126;SDS011;38120;53.176;6.614;2023-05-23T14:12:21;11.70;;;2.40;;
52126;SDS011;38120;53.176;6.614;2023-05-23T14:14:47;8.82;;;2.58;;
52126;SDS011;38120;53.176;6.614;2023-05-23T14:17:16;14.88;;;2.70;;
52126;SDS011;38120;53.176;6.614;2023-05-23T14:19:42;12.02;;;3.83;;
52126;SDS011;38120;53.176;6.614;2023-05-23T14:22:08;13.18;;;3.50;;
52126;SDS011;38120;53.176;6.614;2023-05-23T14:24:35;8.60;;;2.40;;
52126;SDS011;38120;53.176;6.614;2023-05-23T14:27:01;12.77;;;3.22;;
52126;SDS011;38120;53.176;6.614;2023-05-23T14:29:27;6.65;;;3.13;;
52126;SDS011;38120;53.176;6.614;2023-05-23T14:31:53;11.10;;;2.33;;
52126;SDS011;38120;53.176;6.614;2023-05-23T14:34:19;10.10;;;2.67;;
52126;SDS011;38120;53.176;6.614;2023-05-23T14:36:46;13.77;;;2.90;;
52126;SDS011;38120;53.176;6.614;2023-05-23T14:39:12;11.50;;;3.35;;
52126;SDS011;38120;53.176;6.614;2023-05-23T14:41:38;11.53;;;2.63;;
52126;SDS011;38120;53.176;6.614;2023-05-23T14:44:04;7.50;;;2.28;;
52126;SDS011;38120;53.176;6.614;2023-05-23T14:46:30;12.00;;;3.10;;
52126;SDS011;38120;53.176;6.614;2023-05-23T14:48:56;11.82;;;2.50;;
52126;SDS011;38120;53.176;6.614;2023-05-23T14:51:21;6.20;;;2.22;;
52126;SDS011;38120;53.176;6.614;2023-05-23T14:53:47;10.00;;;2.83;;
52126;SDS011;38120;53.176;6.614;2023-05-23T14:56:13;15.27;;;3.50;;
52126;SDS011;38120;53.176;6.614;2023-05-23T14:58:39;10.45;;;2.72;;
52126;SDS011;38120;53.176;6.614;2023-05-23T15:01:09;12.43;;;3.17;;
52126;SDS011;38120;53.176;6.614;2023-05-23T15:03:38;12.35;;;2.50;;
52126;SDS011;38120;53.176;6.614;2023-05-23T15:06:04;13.63;;;3.33;;
52126;SDS011;38120;53.176;6.614;2023-05-23T15:08:31;12.40;;;2.50;;
52126;SDS011;38120;53.176;6.614;2023-05-23T15:10:57;14.68;;;2.95;;
52126;SDS011;38120;53.176;6.614;2023-05-23T15:13:23;11.30;;;3.22;;
52126;SDS011;38120;53.176;6.614;2023-05-23T15:15:52;8.18;;;2.72;;
52126;SDS011;38120;53.176;6.614;2023-05-23T15:18:18;5.97;;;2.28;;
52126;SDS011;38120;53.176;6.614;2023-05-23T15:20:45;11.77;;;2.75;;
52126;SDS011;38120;53.176;6.614;2023-05-23T15:23:11;9.25;;;2.15;;
52126;SDS011;38120;53.176;6.614;2023-05-23T15:25:37;7.78;;;2.90;;
52126;SDS011;38120;53.176;6.614;2023-05-23T15:28:03;11.88;;;2.65;;
52126;SDS011;38120;53.176;6.614;2023-05-23T15:30:29;7.53;;;2.13;;
52126;SDS011;38120;53.176;6.614;2023-05-23T15:32:55;11.15;;;2.33;;
52126;SDS011;38120;53.176;6.614;2023-05-23T15:35:20;9.23;;;3.42;;
52126;SDS011;38120;53.176;6.614;2023-05-23T15:37:46;12.48;;;2.47;;
52126;SDS011;38120;53.176;6.614;2023-05-23T15:40:13;12.30;;;2.47;;
52126;SDS011;38120;53.176;6.614;2023-05-23T15:42:39;8.02;;;2.20;;
52126;SDS011;38120;53.176;6.614;2023-05-23T15:45:05;11.30;;;3.00;;
52126;SDS011;38120;53.176;6.614;2023-05-23T15:49:57;13.10;;;2.40;;
52126;SDS011;38120;53.176;6.614;2023-05-23T15:52:23;10.98;;;3.05;;
52126;SDS011;38120;53.176;6.614;2023-05-23T15:54:57;11.40;;;2.88;;
52126;SDS011;38120;53.176;6.614;2023-05-23T15:57:28;10.13;;;2.08;;
52126;SDS011;38120;53.176;6.614;2023-05-23T15:59:53;9.75;;;2.35;;